createdAt,value
2017-12-17T00:00:51.187Z,39.75
2017-12-17T00:01:51.906Z,39.77
2017-12-17T00:02:52.119Z,39.78
2017-12-17T00:03:52.587Z,39.78
2017-12-17T00:04:53.052Z,39.73
2017-12-17T00:05:53.516Z,39.67
2017-12-17T00:06:53.983Z,39.63
2017-12-17T00:07:54.449Z,39.59
2017-12-17T00:08:54.916Z,39.61
2017-12-17T00:09:55.412Z,39.61
2017-12-17T00:10:56.049Z,39.64
2017-12-17T00:11:56.361Z,39.67
2017-12-17T00:12:56.780Z,39.67
2017-12-17T00:13:57.243Z,39.67
2017-12-17T00:14:57.706Z,39.67
2017-12-17T00:15:58.174Z,39.66
2017-12-17T00:16:58.693Z,39.61
2017-12-17T00:17:59.103Z,39.63
2017-12-17T00:18:59.572Z,39.61
2017-12-17T00:20:00.037Z,39.63
2017-12-17T00:21:00.705Z,39.65
2017-12-17T00:22:00.966Z,39.67
2017-12-17T00:23:01.432Z,39.69
2017-12-17T00:24:01.899Z,39.69
2017-12-17T00:26:02.830Z,39.68
2017-12-17T00:27:03.345Z,39.71
2017-12-17T00:28:03.761Z,39.69
2017-12-17T00:29:04.228Z,39.71
2017-12-17T00:30:04.690Z,39.71
2017-12-17T00:31:05.196Z,39.71
2017-12-17T00:32:05.622Z,39.69
2017-12-17T00:33:06.087Z,39.69
2017-12-17T00:34:06.553Z,39.70
2017-12-17T00:35:07.019Z,39.71
2017-12-17T00:36:07.483Z,39.72
2017-12-17T00:37:08.205Z,39.75
2017-12-17T00:38:08.618Z,39.77
2017-12-17T00:39:08.880Z,39.78
2017-12-17T00:40:09.346Z,39.76
2017-12-17T00:42:10.529Z,39.74
2017-12-17T00:43:10.745Z,39.73
2017-12-17T00:44:11.216Z,39.76
2017-12-17T00:45:11.675Z,39.78
2017-12-17T00:46:12.139Z,39.83
2017-12-17T00:47:12.655Z,39.86
2017-12-17T00:48:13.071Z,39.89
2017-12-17T00:49:13.536Z,39.90
2017-12-17T00:50:14.002Z,39.92
2017-12-17T00:51:14.471Z,39.95
2017-12-17T00:52:14.934Z,39.92
2017-12-17T00:53:15.400Z,39.92
2017-12-17T00:54:15.863Z,39.95
2017-12-17T00:55:16.530Z,39.95
2017-12-17T00:56:16.795Z,39.95
2017-12-17T00:57:17.259Z,39.98
2017-12-17T00:58:17.724Z,40.01
2017-12-17T00:59:18.192Z,39.99
2017-12-17T01:01:19.123Z,40.03
2017-12-17T01:02:19.587Z,40.04
2017-12-17T01:03:20.056Z,40.07
2017-12-17T01:04:20.519Z,40.07
2017-12-17T01:05:20.986Z,40.09
2017-12-17T01:06:21.449Z,40.11
2017-12-17T01:07:21.969Z,40.16
2017-12-17T01:08:22.384Z,40.17
2017-12-17T01:09:22.846Z,40.20
2017-12-17T01:10:23.314Z,40.21
2017-12-17T01:11:23.778Z,40.23
2017-12-17T01:12:24.496Z,40.25
2017-12-17T01:13:24.707Z,40.28
2017-12-17T01:14:25.173Z,40.29
2017-12-17T01:15:25.637Z,40.29
2017-12-17T01:16:26.105Z,40.29
2017-12-17T01:17:26.570Z,40.33
2017-12-17T01:18:27.034Z,40.37
2017-12-17T01:19:27.705Z,40.35
2017-12-17T01:20:27.964Z,40.33
2017-12-17T01:21:28.432Z,40.34
2017-12-17T01:22:28.948Z,40.37
2017-12-17T01:23:29.364Z,40.39
2017-12-17T01:24:29.827Z,40.41
2017-12-17T01:25:30.296Z,40.44
2017-12-17T01:26:30.757Z,40.43
2017-12-17T01:27:31.273Z,40.42
2017-12-17T01:28:31.690Z,40.42
2017-12-17T01:29:32.156Z,40.43
2017-12-17T01:30:32.823Z,40.41
2017-12-17T01:31:33.086Z,40.42
2017-12-17T01:32:33.552Z,40.42
2017-12-17T01:33:34.019Z,40.46
2017-12-17T01:34:34.485Z,40.48
2017-12-17T01:35:34.973Z,40.48
2017-12-17T01:36:35.412Z,40.48
2017-12-17T01:37:35.878Z,40.50
2017-12-17T01:38:36.341Z,40.51
2017-12-17T01:39:37.013Z,40.50
2017-12-17T01:40:37.274Z,40.52
2017-12-17T01:41:37.747Z,40.53
2017-12-17T01:42:38.205Z,40.54
2017-12-17T01:43:38.875Z,40.53
2017-12-17T01:44:39.137Z,40.53
2017-12-17T01:45:39.603Z,40.52
2017-12-17T01:46:40.067Z,40.52
2017-12-17T01:47:40.583Z,40.51
2017-12-17T01:49:41.465Z,40.51
2017-12-17T01:50:41.929Z,40.53
2017-12-17T01:51:42.395Z,40.50
2017-12-17T01:52:42.860Z,40.50
2017-12-17T01:53:43.325Z,40.51
2017-12-17T01:54:43.995Z,40.51
2017-12-17T01:55:44.257Z,40.50
2017-12-17T01:56:44.731Z,40.56
2017-12-17T01:57:45.239Z,40.55
2017-12-17T01:58:45.652Z,40.55
2017-12-17T01:59:46.119Z,40.55
2017-12-17T02:00:46.585Z,40.55
2017-12-17T02:01:47.049Z,40.56
2017-12-17T02:02:47.514Z,40.55
2017-12-17T02:03:47.980Z,40.57
2017-12-17T02:04:48.448Z,40.59
2017-12-17T02:05:48.913Z,40.60
2017-12-17T02:06:49.375Z,40.56
2017-12-17T02:07:49.893Z,40.56
2017-12-17T02:08:50.307Z,40.58
2017-12-17T02:09:50.773Z,40.60
2017-12-17T02:10:51.239Z,40.63
2017-12-17T02:11:51.703Z,40.62
2017-12-17T02:12:52.169Z,40.62
2017-12-17T02:13:52.634Z,40.63
2017-12-17T02:14:53.302Z,40.66
2017-12-17T02:15:53.563Z,40.61
2017-12-17T02:16:54.034Z,40.64
2017-12-17T02:17:54.953Z,40.66
2017-12-17T02:18:55.163Z,40.67
2017-12-17T02:19:55.428Z,40.68
2017-12-17T02:20:56.094Z,40.69
2017-12-17T02:21:56.359Z,40.69
2017-12-17T02:22:56.874Z,40.71
2017-12-17T02:23:57.289Z,40.73
2017-12-17T02:24:57.754Z,40.75
2017-12-17T02:25:58.424Z,40.72
2017-12-17T02:26:58.887Z,40.71
2017-12-17T02:27:59.404Z,40.72
2017-12-17T02:28:59.616Z,40.72
2017-12-17T02:30:00.087Z,40.72
2017-12-17T02:31:00.546Z,40.71
2017-12-17T02:32:01.011Z,40.69
2017-12-17T02:33:01.479Z,40.70
2017-12-17T02:34:01.944Z,40.70
2017-12-17T02:35:02.409Z,40.67
2017-12-17T02:36:03.077Z,40.70
2017-12-17T02:37:03.340Z,40.67
2017-12-17T02:38:03.807Z,40.67
2017-12-17T02:39:04.272Z,40.66
2017-12-17T02:40:04.740Z,40.65
2017-12-17T02:41:05.406Z,40.67
2017-12-17T02:42:05.668Z,40.73
2017-12-17T02:43:06.184Z,40.73
2017-12-17T02:44:06.600Z,40.73
2017-12-17T02:45:07.063Z,40.71
2017-12-17T02:46:07.531Z,40.73
2017-12-17T02:47:07.997Z,40.76
2017-12-17T02:48:08.461Z,40.72
2017-12-17T02:49:08.925Z,40.70
2017-12-17T02:50:09.394Z,40.72
2017-12-17T02:51:09.857Z,40.71
2017-12-17T02:52:10.323Z,40.70
2017-12-17T02:53:10.839Z,40.69
2017-12-17T02:54:11.254Z,40.72
2017-12-17T02:55:11.719Z,40.74
2017-12-17T02:56:12.183Z,40.75
2017-12-17T02:57:12.650Z,40.76
2017-12-17T02:58:13.115Z,40.76
2017-12-17T02:59:13.580Z,40.73
2017-12-17T03:00:14.047Z,40.70
2017-12-17T03:02:14.980Z,40.74
2017-12-17T03:03:15.441Z,40.75
2017-12-17T03:04:15.910Z,40.75
2017-12-17T03:05:16.374Z,40.77
2017-12-17T03:06:16.844Z,40.74
2017-12-17T03:07:17.305Z,40.75
2017-12-17T03:08:17.772Z,40.76
2017-12-17T03:09:18.236Z,40.74
2017-12-17T03:10:18.701Z,40.74
2017-12-17T03:11:19.167Z,40.76
2017-12-17T03:12:19.636Z,40.76
2017-12-17T03:13:20.098Z,40.76
2017-12-17T03:14:20.568Z,40.72
2017-12-17T03:15:21.028Z,40.73
2017-12-17T03:16:21.494Z,40.75
2017-12-17T03:18:22.435Z,40.72
2017-12-17T03:20:23.356Z,40.71
2017-12-17T03:21:23.825Z,40.73
2017-12-17T03:22:24.286Z,40.71
2017-12-17T03:23:24.804Z,40.71
2017-12-17T03:24:25.219Z,40.70
2017-12-17T03:25:25.687Z,40.74
2017-12-17T03:26:26.150Z,40.73
2017-12-17T03:27:26.614Z,40.75
2017-12-17T03:28:27.080Z,40.76
2017-12-17T03:29:27.546Z,40.79
2017-12-17T03:30:28.013Z,40.77
2017-12-17T03:31:28.476Z,40.78
2017-12-17T03:32:28.943Z,40.78
2017-12-17T03:33:29.406Z,40.78
2017-12-17T03:34:29.874Z,40.77
2017-12-17T03:35:30.338Z,40.75
2017-12-17T03:36:30.804Z,40.76
2017-12-17T03:37:31.277Z,40.77
2017-12-17T03:38:31.734Z,40.76
2017-12-17T03:39:32.200Z,40.76
2017-12-17T03:40:32.667Z,40.74
2017-12-17T03:41:33.183Z,40.73
2017-12-17T03:42:33.601Z,40.72
2017-12-17T03:43:34.114Z,40.67
2017-12-17T03:44:34.528Z,40.68
2017-12-17T03:45:34.996Z,40.65
2017-12-17T03:46:35.662Z,40.66
2017-12-17T03:47:35.924Z,40.65
2017-12-17T03:48:36.389Z,40.62
2017-12-17T03:49:37.059Z,40.55
2017-12-17T03:50:37.322Z,40.54
2017-12-17T03:51:37.787Z,40.50
2017-12-17T03:52:38.251Z,40.51
2017-12-17T03:53:38.768Z,40.53
2017-12-17T03:54:39.183Z,40.53
2017-12-17T03:55:39.678Z,40.43
2017-12-17T03:56:40.116Z,40.44
2017-12-17T03:57:40.579Z,40.41
2017-12-17T03:58:41.047Z,40.42
2017-12-17T03:59:41.712Z,40.35
2017-12-17T04:00:41.976Z,40.33
2017-12-17T04:01:42.442Z,40.28
2017-12-17T04:02:42.907Z,40.27
2017-12-17T04:03:43.373Z,40.28
2017-12-17T04:04:43.838Z,40.27
2017-12-17T04:05:44.303Z,40.30
2017-12-17T04:06:44.770Z,40.31
2017-12-17T04:07:45.236Z,40.31
2017-12-17T04:08:45.953Z,40.27
2017-12-17T04:09:46.168Z,40.23
2017-12-17T04:10:46.633Z,40.23
2017-12-17T04:11:47.095Z,40.22
2017-12-17T04:12:47.562Z,40.21
2017-12-17T04:13:48.028Z,40.21
2017-12-17T04:14:48.494Z,40.19
2017-12-17T04:15:48.958Z,40.20
2017-12-17T04:16:49.424Z,40.13
2017-12-17T04:17:49.889Z,40.13
2017-12-17T04:18:50.356Z,40.10
2017-12-17T04:19:50.819Z,40.06
2017-12-17T04:20:51.287Z,40.04
2017-12-17T04:21:51.751Z,40.04
2017-12-17T04:22:52.216Z,40.01
2017-12-17T04:23:52.680Z,39.98
2017-12-17T04:24:53.148Z,39.92
2017-12-17T04:25:53.615Z,39.91
2017-12-17T04:27:54.544Z,39.90
2017-12-17T04:28:55.211Z,39.92
2017-12-17T04:29:55.476Z,39.90
2017-12-17T04:30:55.940Z,39.87
2017-12-17T04:31:56.407Z,39.86
2017-12-17T04:32:56.870Z,39.84
2017-12-17T04:33:57.336Z,39.86
2017-12-17T04:34:57.802Z,39.89
2017-12-17T04:35:58.266Z,39.92
2017-12-17T04:36:58.732Z,39.92
2017-12-17T04:37:59.400Z,39.91
2017-12-17T04:38:59.715Z,39.90
2017-12-17T04:40:00.130Z,39.83
2017-12-17T04:41:00.595Z,39.83
2017-12-17T04:42:01.059Z,39.77
2017-12-17T04:43:01.524Z,39.75
2017-12-17T04:44:01.989Z,39.74
2017-12-17T04:45:02.458Z,39.73
2017-12-17T04:46:02.921Z,39.71
2017-12-17T04:47:03.385Z,39.64
2017-12-17T04:48:03.853Z,39.59
2017-12-17T04:49:04.367Z,39.59
2017-12-17T04:50:04.784Z,39.59
2017-12-17T04:51:05.248Z,39.55
2017-12-17T04:52:05.719Z,39.55
2017-12-17T04:53:06.177Z,39.54
2017-12-17T04:54:06.643Z,39.57
2017-12-17T04:55:07.111Z,39.54
2017-12-17T04:56:07.574Z,39.54
2017-12-17T04:57:08.039Z,39.53
2017-12-17T04:58:08.505Z,39.56
2017-12-17T04:59:09.020Z,39.59
2017-12-17T05:00:09.435Z,39.61
2017-12-17T05:01:09.900Z,39.59
2017-12-17T05:02:10.365Z,39.50
2017-12-17T05:03:10.835Z,39.51
2017-12-17T05:04:11.295Z,39.49
2017-12-17T05:05:11.761Z,39.48
2017-12-17T05:06:12.227Z,39.46
2017-12-17T05:07:12.693Z,39.44
2017-12-17T05:08:13.156Z,39.39
2017-12-17T05:09:13.675Z,39.35
2017-12-17T05:10:14.090Z,39.33
2017-12-17T05:11:14.755Z,39.33
2017-12-17T05:12:15.018Z,39.31
2017-12-17T05:13:15.687Z,39.31
2017-12-17T05:14:15.950Z,39.28
2017-12-17T05:15:16.414Z,39.29
2017-12-17T05:17:17.349Z,39.31
2017-12-17T05:18:18.013Z,39.33
2017-12-17T05:19:18.276Z,39.35
2017-12-17T05:20:18.739Z,39.33
2017-12-17T05:21:19.204Z,39.34
2017-12-17T05:22:19.670Z,39.33
2017-12-17T05:23:20.134Z,39.33
2017-12-17T05:24:20.600Z,39.35
2017-12-17T05:25:21.065Z,39.39
2017-12-17T05:26:21.530Z,39.37
2017-12-17T05:27:21.996Z,39.38
2017-12-17T05:28:22.463Z,39.37
2017-12-17T05:29:22.974Z,39.40
2017-12-17T05:30:23.392Z,39.41
2017-12-17T05:31:23.856Z,39.42
2017-12-17T05:32:24.323Z,39.44
2017-12-17T05:33:24.788Z,39.46
2017-12-17T05:34:25.252Z,39.48
2017-12-17T05:35:25.715Z,39.47
2017-12-17T05:36:26.181Z,39.47
2017-12-17T05:37:26.648Z,39.47
2017-12-17T05:38:27.111Z,39.43
2017-12-17T05:39:27.576Z,39.42
2017-12-17T05:40:28.446Z,39.44
2017-12-17T05:41:28.522Z,39.44
2017-12-17T05:42:29.174Z,39.44
2017-12-17T05:43:29.437Z,39.45
2017-12-17T05:44:29.954Z,39.46
2017-12-17T05:45:30.366Z,39.45
2017-12-17T05:46:30.830Z,39.44
2017-12-17T05:47:31.499Z,39.44
2017-12-17T05:48:31.764Z,39.44
2017-12-17T05:49:32.226Z,39.42
2017-12-17T05:50:32.693Z,39.40
2017-12-17T05:51:33.155Z,39.46
2017-12-17T05:52:33.823Z,39.44
2017-12-17T05:53:34.087Z,39.47
2017-12-17T05:54:34.550Z,39.46
2017-12-17T05:55:35.019Z,39.45
2017-12-17T05:56:35.481Z,39.45
2017-12-17T05:57:36.149Z,39.48
2017-12-17T05:59:36.927Z,39.54
2017-12-17T06:00:37.545Z,39.54
2017-12-17T06:01:38.007Z,39.53
2017-12-17T06:02:38.675Z,39.54
2017-12-17T06:03:38.735Z,39.55
2017-12-17T06:04:39.201Z,39.54
2017-12-17T06:05:39.666Z,39.56
2017-12-17T06:06:40.132Z,39.58
2017-12-17T06:07:40.596Z,39.60
2017-12-17T06:08:41.059Z,39.62
2017-12-17T06:09:41.576Z,39.58
2017-12-17T06:10:41.992Z,39.62
2017-12-17T06:11:42.456Z,39.60
2017-12-17T06:12:42.920Z,39.62
2017-12-17T06:13:43.385Z,39.62
2017-12-17T06:14:43.902Z,39.63
2017-12-17T06:15:44.316Z,39.66
2017-12-17T06:16:44.778Z,39.68
2017-12-17T06:17:45.244Z,39.68
2017-12-17T06:18:45.709Z,39.71
2017-12-17T06:19:46.176Z,39.72
2017-12-17T06:20:46.846Z,39.73
2017-12-17T06:21:47.104Z,39.79
2017-12-17T06:22:47.574Z,39.80
2017-12-17T06:23:48.034Z,39.82
2017-12-17T06:24:48.550Z,39.87
2017-12-17T06:25:49.169Z,39.91
2017-12-17T06:26:49.429Z,39.93
2017-12-17T06:27:50.100Z,39.97
2017-12-17T06:28:50.360Z,40.04
2017-12-17T06:29:50.823Z,40.02
2017-12-17T06:30:51.287Z,40.08
2017-12-17T06:31:51.755Z,40.11
2017-12-17T06:32:52.220Z,40.09
2017-12-17T06:33:52.683Z,40.10
2017-12-17T06:34:53.208Z,40.10
2017-12-17T06:35:53.614Z,40.13
2017-12-17T06:36:54.078Z,40.13
2017-12-17T06:37:54.744Z,40.14
2017-12-17T06:38:55.211Z,40.16
2017-12-17T06:39:55.675Z,40.14
2017-12-17T06:43:57.336Z,40.12
2017-12-17T06:44:57.861Z,40.12
2017-12-17T06:45:58.278Z,40.13
2017-12-17T06:46:58.726Z,40.11
2017-12-17T06:50:00.188Z,40.18
2017-12-17T06:51:00.598Z,40.17
2017-12-17T06:52:01.467Z,40.18
2017-12-17T06:53:01.516Z,40.21
2017-12-17T06:54:01.980Z,40.20
2017-12-17T06:55:02.444Z,40.21
2017-12-17T06:56:02.912Z,40.23
2017-12-17T06:57:03.374Z,40.23
2017-12-17T06:58:03.838Z,40.25
2017-12-17T06:59:04.306Z,40.27
2017-12-17T07:00:04.817Z,40.28
2017-12-17T07:01:05.233Z,40.27
2017-12-17T07:02:05.698Z,40.23
2017-12-17T07:03:06.163Z,40.23
2017-12-17T07:04:06.629Z,40.19
2017-12-17T07:05:07.090Z,40.21
2017-12-17T07:06:07.558Z,40.20
2017-12-17T07:07:08.023Z,40.16
2017-12-17T07:08:08.488Z,40.18
2017-12-17T07:09:08.953Z,40.15
2017-12-17T07:10:09.419Z,40.15
2017-12-17T07:11:09.882Z,40.12
2017-12-17T07:12:10.347Z,40.14
2017-12-17T07:13:10.812Z,40.12
2017-12-17T07:14:11.275Z,40.14
2017-12-17T07:15:11.807Z,40.11
2017-12-17T07:16:12.218Z,40.06
2017-12-17T07:17:12.682Z,40.01
2017-12-17T07:18:13.348Z,39.98
2017-12-17T07:19:13.613Z,40.00
2017-12-17T07:20:14.114Z,39.99
2017-12-17T07:21:14.540Z,40.00
2017-12-17T07:22:15.006Z,40.02
2017-12-17T07:23:15.472Z,40.02
2017-12-17T07:25:28.175Z,40.06
2017-12-17T07:26:16.865Z,40.06
2017-12-17T07:27:17.329Z,40.06
2017-12-17T07:28:17.798Z,40.05
2017-12-17T07:29:18.260Z,40.06
2017-12-17T07:30:18.713Z,40.05
2017-12-17T07:32:19.657Z,40.09
2017-12-17T07:33:20.119Z,40.08
2017-12-17T07:34:20.589Z,40.10
2017-12-17T07:35:33.180Z,40.10
2017-12-17T07:37:21.972Z,40.11
2017-12-17T07:39:22.910Z,40.07
2017-12-17T07:40:23.374Z,40.07
2017-12-17T07:41:23.827Z,40.07
2017-12-17T07:43:24.771Z,40.05
2017-12-17T07:44:25.239Z,40.06
2017-12-17T07:45:25.750Z,40.07
2017-12-17T07:46:26.167Z,40.07
2017-12-17T07:47:26.632Z,40.05
2017-12-17T07:48:27.084Z,40.05
2017-12-17T07:49:27.561Z,40.06
2017-12-17T07:51:28.491Z,40.06
2017-12-17T07:53:29.422Z,40.07
2017-12-17T07:54:29.887Z,40.09
2017-12-17T07:55:30.353Z,40.05
2017-12-17T07:56:30.817Z,40.03
2017-12-17T07:57:31.284Z,39.99
2017-12-17T07:59:32.201Z,39.99
2017-12-17T08:00:44.199Z,40.01
2017-12-17T08:01:33.343Z,40.04
2017-12-17T08:02:34.010Z,40.02
2017-12-17T08:03:34.072Z,39.93
2017-12-17T08:04:34.536Z,39.96
2017-12-17T08:05:47.241Z,39.96
2017-12-17T08:06:35.461Z,39.99
2017-12-17T08:07:35.930Z,40.01
2017-12-17T08:08:36.397Z,39.97
2017-12-17T08:10:37.365Z,39.97
2017-12-17T08:12:38.257Z,39.94
2017-12-17T08:13:38.721Z,39.86
2017-12-17T08:15:51.224Z,39.86
2017-12-17T08:16:40.320Z,39.84
2017-12-17T08:17:40.570Z,39.86
2017-12-17T08:18:41.249Z,39.83
2017-12-17T08:19:41.512Z,39.87
2017-12-17T08:20:42.028Z,39.88
2017-12-17T08:21:42.428Z,39.88
2017-12-17T08:22:42.908Z,39.91
2017-12-17T08:23:43.372Z,39.90
2017-12-17T08:25:44.302Z,39.95
2017-12-17T08:26:44.774Z,39.94
2017-12-17T08:28:45.687Z,39.91
2017-12-17T08:29:46.163Z,39.93
2017-12-17T08:30:46.681Z,39.96
2017-12-17T08:31:47.093Z,39.96
2017-12-17T08:32:47.547Z,40.00
2017-12-17T08:33:48.426Z,40.00
2017-12-17T08:34:48.491Z,39.98
2017-12-17T08:35:48.955Z,39.95
2017-12-17T08:36:49.424Z,39.97
2017-12-17T08:37:49.885Z,39.92
2017-12-17T08:38:50.351Z,39.94
2017-12-17T08:39:50.803Z,39.93
2017-12-17T08:41:03.264Z,39.97
2017-12-17T08:41:51.748Z,39.97
2017-12-17T08:42:52.209Z,39.96
2017-12-17T08:43:52.678Z,39.93
2017-12-17T08:46:54.075Z,39.87
2017-12-17T08:47:54.942Z,39.91
2017-12-17T08:49:55.467Z,39.96
2017-12-17T08:50:55.971Z,39.98
2017-12-17T08:51:56.401Z,40.01
2017-12-17T08:52:56.866Z,40.04
2017-12-17T08:55:58.264Z,40.05
2017-12-17T08:56:58.726Z,39.98
2017-12-17T08:57:59.580Z,39.95
2017-12-17T08:58:59.655Z,39.89
2017-12-17T09:00:00.322Z,39.92
2017-12-17T09:03:01.517Z,39.95
2017-12-17T09:04:01.984Z,39.94
2017-12-17T09:05:02.447Z,39.93
2017-12-17T09:06:02.917Z,39.96
2017-12-17T09:07:03.572Z,39.96
2017-12-17T09:08:03.843Z,39.96
2017-12-17T09:09:04.308Z,39.93
2017-12-17T09:10:04.773Z,39.90
2017-12-17T09:11:17.279Z,39.87
2017-12-17T09:12:05.753Z,39.80
2017-12-17T09:13:06.170Z,39.78
2017-12-17T09:14:06.638Z,39.76
2017-12-17T09:15:07.101Z,39.74
2017-12-17T09:16:07.769Z,39.73
2017-12-17T09:17:08.032Z,39.78
2017-12-17T09:18:08.485Z,39.79
2017-12-17T09:19:09.166Z,39.76
2017-12-17T09:20:09.428Z,39.77
2017-12-17T09:22:10.412Z,39.76
2017-12-17T09:24:11.695Z,39.82
2017-12-17T09:25:11.747Z,39.79
2017-12-17T09:26:12.222Z,39.79
2017-12-17T09:27:12.740Z,39.74
2017-12-17T09:28:13.154Z,39.75
2017-12-17T09:29:13.610Z,39.69
2017-12-17T09:30:14.084Z,39.68
2017-12-17T09:31:14.551Z,39.68
2017-12-17T09:33:15.483Z,39.75
2017-12-17T09:35:16.400Z,39.82
2017-12-17T09:36:16.881Z,39.78
2017-12-17T09:38:17.811Z,39.77
2017-12-17T09:39:18.279Z,39.82
2017-12-17T09:40:18.800Z,39.85
2017-12-17T09:41:19.411Z,39.90
2017-12-17T09:42:19.711Z,39.89
2017-12-17T09:46:21.535Z,39.87
2017-12-17T09:47:22.051Z,39.87
2017-12-17T09:48:22.468Z,39.88
2017-12-17T09:49:23.135Z,39.87
2017-12-17T09:50:23.398Z,39.85
2017-12-17T09:52:36.321Z,39.84
2017-12-17T09:53:24.782Z,39.82
2017-12-17T09:54:25.260Z,39.78
2017-12-17T09:55:25.725Z,39.79
2017-12-17T09:56:26.193Z,39.81
2017-12-17T09:58:27.326Z,39.79
2017-12-17T09:59:27.597Z,39.81
2017-12-17T10:00:28.041Z,39.79
2017-12-17T10:01:28.725Z,39.79
2017-12-17T10:02:28.987Z,39.78
2017-12-17T10:03:29.452Z,39.78
2017-12-17T10:04:29.909Z,39.78
2017-12-17T10:05:30.386Z,39.76
2017-12-17T10:06:30.856Z,39.75
2017-12-17T10:07:31.576Z,39.74
2017-12-17T10:09:32.247Z,39.71
2017-12-17T10:10:32.711Z,39.70
2017-12-17T10:11:33.166Z,39.70
2017-12-17T10:12:33.899Z,39.69
2017-12-17T10:13:34.110Z,39.70
2017-12-17T10:14:34.579Z,39.70
2017-12-17T10:15:35.028Z,39.68
2017-12-17T10:16:35.508Z,39.72
2017-12-17T10:17:35.982Z,39.75
2017-12-17T10:19:36.903Z,39.73
2017-12-17T10:21:37.837Z,39.71
2017-12-17T10:22:38.339Z,39.70
2017-12-17T10:23:38.970Z,39.72
2017-12-17T10:24:39.236Z,39.71
2017-12-17T10:25:39.702Z,39.70
2017-12-17T10:26:40.166Z,39.73
2017-12-17T10:27:40.631Z,39.71
2017-12-17T10:28:41.101Z,39.66
2017-12-17T10:29:41.568Z,39.65
2017-12-17T10:30:42.233Z,39.66
2017-12-17T10:31:42.496Z,39.68
2017-12-17T10:32:43.013Z,39.75
2017-12-17T10:33:43.617Z,39.79
2017-12-17T10:35:44.358Z,39.76
2017-12-17T10:37:45.324Z,39.74
2017-12-17T10:38:45.759Z,39.78
2017-12-17T10:39:46.227Z,39.79
2017-12-17T10:40:46.686Z,39.77
2017-12-17T10:43:48.089Z,39.78
2017-12-17T10:44:48.543Z,39.80
2017-12-17T10:45:49.225Z,39.78
2017-12-17T10:46:49.491Z,39.79
2017-12-17T10:47:49.956Z,39.80
2017-12-17T10:48:50.420Z,39.78
2017-12-17T10:49:50.890Z,39.79
2017-12-17T10:50:51.371Z,39.82
2017-12-17T10:51:51.810Z,39.85
2017-12-17T10:52:52.339Z,39.85
2017-12-17T10:53:52.752Z,39.91
2017-12-17T10:54:53.218Z,39.90
2017-12-17T10:55:53.672Z,39.91
2017-12-17T10:56:54.151Z,39.90
2017-12-17T10:57:54.622Z,39.89
2017-12-17T10:59:55.553Z,39.95
2017-12-17T11:00:56.220Z,39.97
2017-12-17T11:01:56.487Z,39.97
2017-12-17T11:02:56.990Z,40.04
2017-12-17T11:03:57.418Z,40.01
2017-12-17T11:04:57.886Z,40.02
2017-12-17T11:06:58.814Z,40.06
2017-12-17T11:08:11.362Z,40.03
2017-12-17T11:08:59.751Z,40.07
2017-12-17T11:10:00.217Z,40.07
2017-12-17T11:11:00.682Z,40.04
2017-12-17T11:12:01.147Z,40.07
2017-12-17T11:14:02.071Z,40.10
2017-12-17T11:15:02.549Z,40.08
2017-12-17T11:16:03.217Z,40.11
2017-12-17T11:17:03.482Z,40.11
2017-12-17T11:19:04.419Z,40.09
2017-12-17T11:20:04.881Z,40.10
2017-12-17T11:22:05.816Z,40.08
2017-12-17T11:23:06.279Z,40.10
2017-12-17T11:24:06.947Z,40.16
2017-12-17T11:25:07.200Z,40.14
2017-12-17T11:26:07.683Z,40.11
2017-12-17T11:27:08.146Z,40.11
2017-12-17T11:28:08.666Z,40.10
2017-12-17T11:29:09.080Z,40.12
2017-12-17T11:31:10.013Z,40.11
2017-12-17T11:32:10.465Z,40.12
2017-12-17T11:33:10.998Z,40.09
2017-12-17T11:34:11.411Z,40.08
2017-12-17T11:35:11.882Z,40.11
2017-12-17T11:36:12.536Z,40.11
2017-12-17T11:37:12.811Z,40.12
2017-12-17T11:38:13.331Z,40.11
2017-12-17T11:39:13.744Z,40.12
2017-12-17T11:40:14.212Z,40.13
2017-12-17T11:41:14.691Z,40.15
2017-12-17T11:42:15.148Z,40.14
2017-12-17T11:43:16.055Z,40.16
2017-12-17T11:44:16.080Z,40.16
2017-12-17T11:46:17.014Z,40.18
2017-12-17T11:47:17.471Z,40.18
2017-12-17T11:48:29.368Z,40.16
2017-12-17T11:50:18.880Z,40.17
2017-12-17T11:51:19.348Z,40.18
2017-12-17T11:52:19.813Z,40.22
2017-12-17T11:53:20.283Z,40.21
2017-12-17T11:54:20.737Z,40.20
2017-12-17T11:56:21.680Z,40.18
2017-12-17T11:57:22.152Z,40.17
2017-12-17T11:58:22.615Z,40.18
2017-12-17T12:00:23.551Z,40.20
2017-12-17T12:03:25.001Z,40.21
2017-12-17T12:05:25.874Z,40.21
2017-12-17T12:06:26.352Z,40.20
2017-12-17T12:07:26.818Z,40.21
2017-12-17T12:08:27.294Z,40.21
2017-12-17T12:09:27.755Z,40.23
2017-12-17T12:10:28.221Z,40.24
2017-12-17T12:11:28.688Z,40.25
2017-12-17T12:12:29.142Z,40.28
2017-12-17T12:13:30.030Z,40.32
2017-12-17T12:16:31.011Z,40.28
2017-12-17T12:18:32.016Z,40.28
2017-12-17T12:19:32.426Z,40.28
2017-12-17T12:20:32.891Z,40.25
2017-12-17T12:21:33.361Z,40.30
2017-12-17T12:22:34.433Z,40.34
2017-12-17T12:23:34.538Z,40.31
2017-12-17T12:24:34.837Z,40.31
2017-12-17T12:25:35.227Z,40.28
2017-12-17T12:26:35.698Z,40.22
2017-12-17T12:27:36.150Z,40.23
2017-12-17T12:30:37.565Z,40.17
2017-12-17T12:31:38.031Z,40.14
2017-12-17T12:32:38.705Z,40.15
2017-12-17T12:33:38.967Z,40.12
2017-12-17T12:34:39.625Z,40.07
2017-12-17T12:35:39.900Z,40.03
2017-12-17T12:38:53.445Z,40.00
2017-12-17T12:39:41.771Z,39.94
2017-12-17T12:40:42.644Z,39.90
2017-12-17T12:41:42.706Z,39.91
2017-12-17T12:43:43.690Z,39.86
2017-12-17T12:44:44.110Z,39.87
2017-12-17T12:45:44.764Z,39.87
2017-12-17T12:46:45.245Z,39.87
2017-12-17T12:47:45.509Z,39.84
2017-12-17T12:49:46.444Z,39.81
2017-12-17T12:50:46.911Z,39.80
2017-12-17T12:51:47.379Z,39.77
2017-12-17T12:52:47.835Z,39.76
2017-12-17T12:53:48.316Z,39.79
2017-12-17T12:55:49.248Z,39.81
2017-12-17T12:56:49.712Z,39.81
2017-12-17T12:57:50.184Z,39.86
2017-12-17T12:58:50.702Z,39.86
2017-12-17T12:59:51.119Z,39.86
2017-12-17T13:00:51.790Z,39.84
2017-12-17T13:01:52.055Z,39.81
2017-12-17T13:02:52.526Z,39.82
2017-12-17T13:03:52.977Z,39.81
2017-12-17T13:05:53.924Z,39.83
2017-12-17T13:06:54.395Z,39.80
2017-12-17T13:07:54.845Z,39.77
2017-12-17T13:08:55.327Z,39.72
2017-12-17T13:09:55.795Z,39.69
2017-12-17T13:10:56.268Z,39.64
2017-12-17T13:11:56.727Z,39.69
2017-12-17T13:12:57.400Z,39.69
2017-12-17T13:14:58.118Z,39.67
2017-12-17T13:16:59.066Z,39.62
2017-12-17T13:17:59.533Z,39.59
2017-12-17T13:18:59.989Z,39.53
2017-12-17T13:20:00.519Z,39.51
2017-12-17T13:22:01.604Z,39.52
2017-12-17T13:23:02.073Z,39.46
2017-12-17T13:25:14.493Z,39.55
2017-12-17T13:26:03.259Z,39.61
2017-12-17T13:28:04.208Z,39.61
2017-12-17T13:30:05.179Z,39.54
2017-12-17T13:31:05.608Z,39.53
2017-12-17T13:32:06.278Z,39.47
2017-12-17T13:33:06.543Z,39.43
2017-12-17T13:34:07.009Z,39.37
2017-12-17T13:36:07.945Z,39.31
2017-12-17T13:37:08.401Z,39.35
2017-12-17T13:38:09.083Z,39.35
2017-12-17T13:40:09.867Z,39.28
2017-12-17T13:41:10.472Z,39.24
2017-12-17T13:42:10.749Z,39.28
2017-12-17T13:43:11.219Z,39.32
2017-12-17T13:44:11.685Z,39.31
2017-12-17T13:45:12.150Z,39.27
2017-12-17T13:47:13.088Z,39.21
2017-12-17T13:48:13.539Z,39.17
2017-12-17T13:49:14.022Z,39.13
2017-12-17T13:50:14.488Z,39.06
2017-12-17T13:51:14.956Z,39.08
2017-12-17T13:52:15.421Z,39.11
2017-12-17T13:53:15.889Z,39.08
2017-12-17T13:54:16.357Z,39.09
2017-12-17T13:55:17.024Z,39.12
2017-12-17T13:56:17.291Z,39.14
2017-12-17T13:57:17.758Z,39.17
2017-12-17T13:58:18.238Z,39.11
2017-12-17T13:59:18.681Z,39.04
2017-12-17T14:00:19.158Z,39.02
2017-12-17T14:01:19.627Z,39.04
2017-12-17T14:02:20.298Z,39.07
2017-12-17T14:04:21.029Z,39.15
2017-12-17T14:05:21.547Z,39.18
2017-12-17T14:06:21.950Z,39.18
2017-12-17T14:07:22.430Z,39.19
2017-12-17T14:08:22.896Z,39.18
2017-12-17T14:09:23.364Z,39.21
2017-12-17T14:10:24.072Z,39.23
2017-12-17T14:11:24.298Z,39.19
2017-12-17T14:12:24.768Z,39.13
2017-12-17T14:13:25.232Z,39.10
2017-12-17T14:14:25.700Z,39.09
2017-12-17T14:15:26.170Z,39.08
2017-12-17T14:17:27.086Z,39.10
2017-12-17T14:18:27.566Z,39.12
2017-12-17T14:19:28.033Z,39.13
2017-12-17T14:20:28.553Z,39.17
2017-12-17T14:21:28.956Z,39.18
2017-12-17T14:22:29.436Z,39.19
2017-12-17T14:23:29.904Z,39.17
2017-12-17T14:24:30.367Z,39.18
2017-12-17T14:25:30.839Z,39.18
2017-12-17T14:26:31.303Z,39.21